sensor_id;sensor_type;location;lat;lon;timestamp;P1;durP1;ratioP1;P2;durP2;ratioP2
5391;SDS011;2719;53.624;9.786;2023-04-24T00:01:22;8.03;;;4.30;;
5391;SDS011;2719;53.624;9.786;2023-04-24T00:03:48;5.90;;;4.20;;
5391;SDS011;2719;53.624;9.786;2023-04-24T00:06:15;4.33;;;3.50;;
5391;SDS011;2719;53.624;9.786;2023-04-24T00:08:42;9.33;;;4.73;;
5391;SDS011;2719;53.624;9.786;2023-04-24T00:11:09;3.30;;;2.80;;
5391;SDS011;2719;53.624;9.786;2023-04-24T00:13:36;3.90;;;3.43;;
5391;SDS011;2719;53.624;9.786;2023-04-24T00:16:03;4.63;;;4.00;;
5391;SDS011;2719;53.624;9.786;2023-04-24T00:18:32;5.10;;;3.80;;
5391;SDS011;2719;53.624;9.786;2023-04-24T00:20:58;10.63;;;4.00;;
5391;SDS011;2719;53.624;9.786;2023-04-24T00:23:25;4.50;;;3.40;;
5391;SDS011;2719;53.624;9.786;2023-04-24T00:25:52;6.93;;;4.77;;
5391;SDS011;2719;53.624;9.786;2023-04-24T00:28:19;7.57;;;3.90;;
5391;SDS011;2719;53.624;9.786;2023-04-24T00:30:45;12.07;;;3.67;;
5391;SDS011;2719;53.624;9.786;2023-04-24T00:33:12;5.43;;;3.80;;
5391;SDS011;2719;53.624;9.786;2023-04-24T00:35:41;5.63;;;3.30;;
5391;SDS011;2719;53.624;9.786;2023-04-24T00:38:07;6.70;;;3.77;;
5391;SDS011;2719;53.624;9.786;2023-04-24T00:40:34;4.90;;;3.53;;
5391;SDS011;2719;53.624;9.786;2023-04-24T00:43:00;3.77;;;3.43;;
5391;SDS011;2719;53.624;9.786;2023-04-24T00:45:27;5.03;;;3.33;;
5391;SDS011;2719;53.624;9.786;2023-04-24T00:47:56;4.63;;;3.30;;
5391;SDS011;2719;53.624;9.786;2023-04-24T00:50:23;5.10;;;3.30;;
5391;SDS011;2719;53.624;9.786;2023-04-24T00:52:51;10.23;;;4.07;;
5391;SDS011;2719;53.624;9.786;2023-04-24T00:55:19;3.23;;;2.70;;
5391;SDS011;2719;53.624;9.786;2023-04-24T00:57:46;3.73;;;3.00;;
5391;SDS011;2719;53.624;9.786;2023-04-24T01:00:14;4.87;;;3.03;;
5391;SDS011;2719;53.624;9.786;2023-04-24T01:02:42;3.87;;;2.63;;
5391;SDS011;2719;53.624;9.786;2023-04-24T01:05:10;6.67;;;2.90;;
5391;SDS011;2719;53.624;9.786;2023-04-24T01:07:38;3.43;;;3.13;;
5391;SDS011;2719;53.624;9.786;2023-04-24T01:10:10;8.20;;;3.43;;
5391;SDS011;2719;53.624;9.786;2023-04-24T01:12:38;6.43;;;3.57;;
5391;SDS011;2719;53.624;9.786;2023-04-24T01:15:05;4.17;;;2.77;;
5391;SDS011;2719;53.624;9.786;2023-04-24T01:17:33;4.97;;;2.53;;
5391;SDS011;2719;53.624;9.786;2023-04-24T01:20:00;4.40;;;2.67;;
5391;SDS011;2719;53.624;9.786;2023-04-24T01:22:32;4.30;;;2.43;;
5391;SDS011;2719;53.624;9.786;2023-04-24T01:24:59;2.50;;;2.10;;
5391;SDS011;2719;53.624;9.786;2023-04-24T01:27:26;2.57;;;2.37;;
5391;SDS011;2719;53.624;9.786;2023-04-24T01:29:53;2.13;;;1.93;;
5391;SDS011;2719;53.624;9.786;2023-04-24T01:32:20;4.13;;;1.90;;
5391;SDS011;2719;53.624;9.786;2023-04-24T01:34:47;2.90;;;1.80;;
5391;SDS011;2719;53.624;9.786;2023-04-24T01:37:15;3.30;;;1.90;;
5391;SDS011;2719;53.624;9.786;2023-04-24T01:39:43;1.80;;;1.67;;
5391;SDS011;2719;53.624;9.786;2023-04-24T01:42:09;1.80;;;1.70;;
5391;SDS011;2719;53.624;9.786;2023-04-24T01:44:36;1.90;;;1.50;;
5391;SDS011;2719;53.624;9.786;2023-04-24T01:47:03;2.13;;;1.30;;
5391;SDS011;2719;53.624;9.786;2023-04-24T01:49:31;3.03;;;1.30;;
5391;SDS011;2719;53.624;9.786;2023-04-24T01:51:58;1.60;;;1.10;;
5391;SDS011;2719;53.624;9.786;2023-04-24T01:54:25;3.00;;;1.10;;
5391;SDS011;2719;53.624;9.786;2023-04-24T01:56:53;2.33;;;1.20;;
5391;SDS011;2719;53.624;9.786;2023-04-24T01:59:20;1.57;;;1.40;;
5391;SDS011;2719;53.624;9.786;2023-04-24T02:01:47;1.50;;;1.30;;
5391;SDS011;2719;53.624;9.786;2023-04-24T02:04:14;2.63;;;1.10;;
5391;SDS011;2719;53.624;9.786;2023-04-24T02:06:41;1.90;;;1.37;;
5391;SDS011;2719;53.624;9.786;2023-04-24T02:09:07;5.63;;;1.30;;
5391;SDS011;2719;53.624;9.786;2023-04-24T02:11:35;1.60;;;1.17;;
5391;SDS011;2719;53.624;9.786;2023-04-24T02:14:03;1.13;;;0.70;;
5391;SDS011;2719;53.624;9.786;2023-04-24T02:16:30;4.97;;;1.30;;
5391;SDS011;2719;53.624;9.786;2023-04-24T02:18:57;0.80;;;0.80;;
5391;SDS011;2719;53.624;9.786;2023-04-24T02:21:24;3.90;;;1.10;;
5391;SDS011;2719;53.624;9.786;2023-04-24T02:23:50;4.03;;;0.97;;
5391;SDS011;2719;53.624;9.786;2023-04-24T02:26:17;1.93;;;0.90;;
5391;SDS011;2719;53.624;9.786;2023-04-24T02:28:43;1.17;;;0.77;;
5391;SDS011;2719;53.624;9.786;2023-04-24T02:31:11;1.10;;;0.80;;
5391;SDS011;2719;53.624;9.786;2023-04-24T02:33:38;1.70;;;1.40;;
5391;SDS011;2719;53.624;9.786;2023-04-24T02:36:05;1.80;;;0.80;;
5391;SDS011;2719;53.624;9.786;2023-04-24T02:38:31;0.97;;;0.73;;
5391;SDS011;2719;53.624;9.786;2023-04-24T02:40:58;3.33;;;1.00;;
5391;SDS011;2719;53.624;9.786;2023-04-24T02:43:25;1.00;;;0.80;;
5391;SDS011;2719;53.624;9.786;2023-04-24T02:45:52;1.10;;;0.73;;
5391;SDS011;2719;53.624;9.786;2023-04-24T02:48:20;0.80;;;0.50;;
5391;SDS011;2719;53.624;9.786;2023-04-24T02:50:46;2.23;;;1.17;;
5391;SDS011;2719;53.624;9.786;2023-04-24T02:53:13;1.40;;;0.70;;
5391;SDS011;2719;53.624;9.786;2023-04-24T02:55:40;1.70;;;0.70;;
5391;SDS011;2719;53.624;9.786;2023-04-24T02:58:06;0.80;;;0.60;;
5391;SDS011;2719;53.624;9.786;2023-04-24T03:00:33;0.70;;;0.50;;
5391;SDS011;2719;53.624;9.786;2023-04-24T03:03:00;0.90;;;0.60;;
5391;SDS011;2719;53.624;9.786;2023-04-24T03:05:29;1.40;;;0.83;;
5391;SDS011;2719;53.624;9.786;2023-04-24T03:07:56;9.43;;;0.77;;
5391;SDS011;2719;53.624;9.786;2023-04-24T03:10:22;1.20;;;0.90;;
5391;SDS011;2719;53.624;9.786;2023-04-24T03:12:49;4.13;;;1.07;;
5391;SDS011;2719;53.624;9.786;2023-04-24T03:15:16;1.13;;;0.90;;
5391;SDS011;2719;53.624;9.786;2023-04-24T03:17:42;1.30;;;0.63;;
5391;SDS011;2719;53.624;9.786;2023-04-24T03:20:09;1.40;;;0.80;;
5391;SDS011;2719;53.624;9.786;2023-04-24T03:22:37;1.20;;;0.70;;
5391;SDS011;2719;53.624;9.786;2023-04-24T03:25:04;1.23;;;0.80;;
5391;SDS011;2719;53.624;9.786;2023-04-24T03:27:33;2.80;;;1.00;;
5391;SDS011;2719;53.624;9.786;2023-04-24T03:29:59;0.97;;;0.70;;
5391;SDS011;2719;53.624;9.786;2023-04-24T03:32:27;3.30;;;0.87;;
5391;SDS011;2719;53.624;9.786;2023-04-24T03:34:53;1.27;;;0.93;;
5391;SDS011;2719;53.624;9.786;2023-04-24T03:37:20;0.80;;;0.70;;
5391;SDS011;2719;53.624;9.786;2023-04-24T03:39:48;3.27;;;1.00;;
5391;SDS011;2719;53.624;9.786;2023-04-24T03:42:14;0.97;;;0.70;;
5391;SDS011;2719;53.624;9.786;2023-04-24T03:44:41;1.17;;;0.60;;
5391;SDS011;2719;53.624;9.786;2023-04-24T03:47:08;3.03;;;1.00;;
5391;SDS011;2719;53.624;9.786;2023-04-24T03:49:35;3.10;;;0.90;;
5391;SDS011;2719;53.624;9.786;2023-04-24T03:52:01;0.80;;;0.60;;
5391;SDS011;2719;53.624;9.786;2023-04-24T03:54:28;1.23;;;0.83;;
5391;SDS011;2719;53.624;9.786;2023-04-24T03:56:56;1.10;;;0.60;;
5391;SDS011;2719;53.624;9.786;2023-04-24T03:59:23;1.00;;;0.60;;
5391;SDS011;2719;53.624;9.786;2023-04-24T04:01:49;0.80;;;0.63;;
5391;SDS011;2719;53.624;9.786;2023-04-24T04:04:16;1.40;;;0.60;;
5391;SDS011;2719;53.624;9.786;2023-04-24T04:06:43;0.83;;;0.70;;
5391;SDS011;2719;53.624;9.786;2023-04-24T04:09:11;1.10;;;0.70;;
5391;SDS011;2719;53.624;9.786;2023-04-24T04:11:38;1.63;;;0.60;;
5391;SDS011;2719;53.624;9.786;2023-04-24T04:14:06;1.53;;;0.70;;
5391;SDS011;2719;53.624;9.786;2023-04-24T04:16:33;1.20;;;0.60;;
5391;SDS011;2719;53.624;9.786;2023-04-24T04:19:01;0.80;;;0.60;;
5391;SDS011;2719;53.624;9.786;2023-04-24T04:21:27;2.93;;;0.70;;
5391;SDS011;2719;53.624;9.786;2023-04-24T04:23:56;1.33;;;0.60;;
5391;SDS011;2719;53.624;9.786;2023-04-24T04:26:22;4.47;;;0.60;;
5391;SDS011;2719;53.624;9.786;2023-04-24T04:28:50;1.57;;;0.60;;
5391;SDS011;2719;53.624;9.786;2023-04-24T04:31:18;1.37;;;0.70;;
5391;SDS011;2719;53.624;9.786;2023-04-24T04:33:45;2.70;;;0.90;;
5391;SDS011;2719;53.624;9.786;2023-04-24T04:36:12;1.00;;;0.80;;
5391;SDS011;2719;53.624;9.786;2023-04-24T04:38:39;2.20;;;1.70;;
5391;SDS011;2719;53.624;9.786;2023-04-24T04:41:07;1.30;;;0.63;;
5391;SDS011;2719;53.624;9.786;2023-04-24T04:43:34;0.90;;;0.60;;
5391;SDS011;2719;53.624;9.786;2023-04-24T04:46:01;0.70;;;0.60;;
5391;SDS011;2719;53.624;9.786;2023-04-24T04:48:29;0.70;;;0.50;;
5391;SDS011;2719;53.624;9.786;2023-04-24T04:50:56;0.90;;;0.50;;
5391;SDS011;2719;53.624;9.786;2023-04-24T04:53:23;0.80;;;0.60;;
5391;SDS011;2719;53.624;9.786;2023-04-24T04:55:50;0.70;;;0.50;;
5391;SDS011;2719;53.624;9.786;2023-04-24T04:58:16;0.70;;;0.50;;
5391;SDS011;2719;53.624;9.786;2023-04-24T05:00:43;2.30;;;0.67;;
5391;SDS011;2719;53.624;9.786;2023-04-24T05:03:09;1.13;;;0.50;;
5391;SDS011;2719;53.624;9.786;2023-04-24T05:05:38;1.50;;;0.60;;
5391;SDS011;2719;53.624;9.786;2023-04-24T05:08:05;0.80;;;0.50;;
5391;SDS011;2719;53.624;9.786;2023-04-24T05:10:33;1.37;;;0.80;;
5391;SDS011;2719;53.624;9.786;2023-04-24T05:13:01;1.27;;;0.50;;
5391;SDS011;2719;53.624;9.786;2023-04-24T05:15:28;3.37;;;0.50;;
5391;SDS011;2719;53.624;9.786;2023-04-24T05:17:55;1.10;;;0.50;;
5391;SDS011;2719;53.624;9.786;2023-04-24T05:20:22;4.47;;;0.60;;
5391;SDS011;2719;53.624;9.786;2023-04-24T05:22:50;1.07;;;0.60;;
5391;SDS011;2719;53.624;9.786;2023-04-24T05:25:16;1.43;;;0.90;;
5391;SDS011;2719;53.624;9.786;2023-04-24T05:27:43;0.80;;;0.50;;
5391;SDS011;2719;53.624;9.786;2023-04-24T05:30:11;2.20;;;0.50;;
5391;SDS011;2719;53.624;9.786;2023-04-24T05:32:38;0.70;;;0.50;;
5391;SDS011;2719;53.624;9.786;2023-04-24T05:35:05;0.70;;;0.50;;
5391;SDS011;2719;53.624;9.786;2023-04-24T05:37:32;4.50;;;0.60;;
5391;SDS011;2719;53.624;9.786;2023-04-24T05:40:00;0.67;;;0.50;;
5391;SDS011;2719;53.624;9.786;2023-04-24T05:42:30;0.70;;;0.40;;
5391;SDS011;2719;53.624;9.786;2023-04-24T05:44:57;1.70;;;0.57;;
5391;SDS011;2719;53.624;9.786;2023-04-24T05:47:23;0.60;;;0.50;;
5391;SDS011;2719;53.624;9.786;2023-04-24T05:49:51;0.70;;;0.50;;
5391;SDS011;2719;53.624;9.786;2023-04-24T05:52:17;0.60;;;0.40;;
5391;SDS011;2719;53.624;9.786;2023-04-24T05:54:44;0.60;;;0.40;;
5391;SDS011;2719;53.624;9.786;2023-04-24T05:57:12;1.77;;;0.60;;
5391;SDS011;2719;53.624;9.786;2023-04-24T05:59:39;1.17;;;0.60;;
5391;SDS011;2719;53.624;9.786;2023-04-24T06:02:07;3.60;;;0.77;;
5391;SDS011;2719;53.624;9.786;2023-04-24T06:04:33;0.90;;;0.50;;
5391;SDS011;2719;53.624;9.786;2023-04-24T06:07:00;1.27;;;0.60;;
5391;SDS011;2719;53.624;9.786;2023-04-24T06:09:27;0.80;;;0.60;;
5391;SDS011;2719;53.624;9.786;2023-04-24T06:11:54;1.03;;;0.50;;
5391;SDS011;2719;53.624;9.786;2023-04-24T06:14:22;0.80;;;0.60;;
5391;SDS011;2719;53.624;9.786;2023-04-24T06:16:49;0.83;;;0.60;;
5391;SDS011;2719;53.624;9.786;2023-04-24T06:19:16;1.00;;;0.57;;
5391;SDS011;2719;53.624;9.786;2023-04-24T06:21:42;0.83;;;0.50;;
5391;SDS011;2719;53.624;9.786;2023-04-24T06:24:09;5.57;;;1.00;;
5391;SDS011;2719;53.624;9.786;2023-04-24T06:26:37;1.90;;;0.70;;
5391;SDS011;2719;53.624;9.786;2023-04-24T06:29:03;1.00;;;0.60;;
5391;SDS011;2719;53.624;9.786;2023-04-24T06:31:31;0.70;;;0.50;;
5391;SDS011;2719;53.624;9.786;2023-04-24T06:34:01;2.00;;;0.63;;
5391;SDS011;2719;53.624;9.786;2023-04-24T06:36:28;2.20;;;0.53;;
5391;SDS011;2719;53.624;9.786;2023-04-24T06:38:55;0.60;;;0.47;;
5391;SDS011;2719;53.624;9.786;2023-04-24T06:41:22;0.87;;;0.50;;
5391;SDS011;2719;53.624;9.786;2023-04-24T06:43:49;1.43;;;0.60;;
5391;SDS011;2719;53.624;9.786;2023-04-24T06:46:15;0.73;;;0.50;;
5391;SDS011;2719;53.624;9.786;2023-04-24T06:48:43;0.80;;;0.60;;
5391;SDS011;2719;53.624;9.786;2023-04-24T06:51:10;1.57;;;0.70;;
5391;SDS011;2719;53.624;9.786;2023-04-24T06:53:36;0.60;;;0.50;;
5391;SDS011;2719;53.624;9.786;2023-04-24T06:56:03;2.60;;;0.70;;
5391;SDS011;2719;53.624;9.786;2023-04-24T06:58:30;0.80;;;0.60;;
5391;SDS011;2719;53.624;9.786;2023-04-24T07:00:57;6.30;;;0.60;;
5391;SDS011;2719;53.624;9.786;2023-04-24T07:03:23;0.60;;;0.50;;
5391;SDS011;2719;53.624;9.786;2023-04-24T07:05:52;0.63;;;0.50;;
5391;SDS011;2719;53.624;9.786;2023-04-24T07:08:18;1.00;;;0.70;;
5391;SDS011;2719;53.624;9.786;2023-04-24T07:10:46;1.23;;;1.10;;
5391;SDS011;2719;53.624;9.786;2023-04-24T07:13:13;0.80;;;0.67;;
5391;SDS011;2719;53.624;9.786;2023-04-24T07:15:39;1.03;;;0.80;;
5391;SDS011;2719;53.624;9.786;2023-04-24T07:18:06;1.03;;;0.87;;
5391;SDS011;2719;53.624;9.786;2023-04-24T07:20:33;1.10;;;0.80;;
5391;SDS011;2719;53.624;9.786;2023-04-24T07:23:01;1.40;;;1.10;;
5391;SDS011;2719;53.624;9.786;2023-04-24T07:25:28;3.43;;;1.20;;
5391;SDS011;2719;53.624;9.786;2023-04-24T07:27:55;1.03;;;0.90;;
5391;SDS011;2719;53.624;9.786;2023-04-24T07:30:22;5.40;;;1.17;;
5391;SDS011;2719;53.624;9.786;2023-04-24T07:32:48;1.40;;;1.30;;
5391;SDS011;2719;53.624;9.786;2023-04-24T07:35:15;0.90;;;0.90;;
5391;SDS011;2719;53.624;9.786;2023-04-24T07:37:42;1.20;;;1.10;;
5391;SDS011;2719;53.624;9.786;2023-04-24T07:40:12;1.20;;;1.10;;
5391;SDS011;2719;53.624;9.786;2023-04-24T07:42:39;2.70;;;1.53;;
5391;SDS011;2719;53.624;9.786;2023-04-24T07:45:06;1.40;;;1.20;;
5391;SDS011;2719;53.624;9.786;2023-04-24T07:47:33;2.10;;;1.80;;
5391;SDS011;2719;53.624;9.786;2023-04-24T07:50:01;3.10;;;2.27;;
5391;SDS011;2719;53.624;9.786;2023-04-24T07:52:28;1.93;;;1.50;;
5391;SDS011;2719;53.624;9.786;2023-04-24T07:54:55;2.93;;;1.60;;
5391;SDS011;2719;53.624;9.786;2023-04-24T07:57:24;3.70;;;1.67;;
5391;SDS011;2719;53.624;9.786;2023-04-24T07:59:51;2.57;;;2.37;;
5391;SDS011;2719;53.624;9.786;2023-04-24T08:02:18;3.27;;;1.53;;
5391;SDS011;2719;53.624;9.786;2023-04-24T08:04:46;3.33;;;1.90;;
5391;SDS011;2719;53.624;9.786;2023-04-24T08:07:13;3.40;;;1.90;;
5391;SDS011;2719;53.624;9.786;2023-04-24T08:09:40;1.57;;;1.47;;
5391;SDS011;2719;53.624;9.786;2023-04-24T08:12:06;1.77;;;1.67;;
5391;SDS011;2719;53.624;9.786;2023-04-24T08:14:34;3.23;;;1.93;;
5391;SDS011;2719;53.624;9.786;2023-04-24T08:17:01;1.53;;;1.43;;
5391;SDS011;2719;53.624;9.786;2023-04-24T08:19:28;2.43;;;1.33;;
5391;SDS011;2719;53.624;9.786;2023-04-24T08:21:55;3.00;;;1.30;;
5391;SDS011;2719;53.624;9.786;2023-04-24T08:24:21;3.17;;;1.00;;
5391;SDS011;2719;53.624;9.786;2023-04-24T08:26:48;1.57;;;1.10;;
5391;SDS011;2719;53.624;9.786;2023-04-24T08:29:16;3.83;;;1.07;;
5391;SDS011;2719;53.624;9.786;2023-04-24T08:31:44;1.70;;;1.40;;
5391;SDS011;2719;53.624;9.786;2023-04-24T08:34:11;1.67;;;1.57;;
5391;SDS011;2719;53.624;9.786;2023-04-24T08:36:37;1.60;;;1.30;;
5391;SDS011;2719;53.624;9.786;2023-04-24T08:39:05;2.50;;;1.63;;
5391;SDS011;2719;53.624;9.786;2023-04-24T08:41:32;2.80;;;2.50;;
5391;SDS011;2719;53.624;9.786;2023-04-24T08:44:00;3.00;;;2.30;;
5391;SDS011;2719;53.624;9.786;2023-04-24T08:46:28;2.10;;;2.00;;
5391;SDS011;2719;53.624;9.786;2023-04-24T08:48:57;1.80;;;1.53;;
5391;SDS011;2719;53.624;9.786;2023-04-24T08:51:25;2.90;;;2.70;;
5391;SDS011;2719;53.624;9.786;2023-04-24T08:53:53;2.20;;;2.00;;
5391;SDS011;2719;53.624;9.786;2023-04-24T08:56:20;6.67;;;2.80;;
5391;SDS011;2719;53.624;9.786;2023-04-24T08:58:48;4.10;;;2.60;;
5391;SDS011;2719;53.624;9.786;2023-04-24T09:01:15;2.33;;;2.17;;
5391;SDS011;2719;53.624;9.786;2023-04-24T09:03:42;2.70;;;1.80;;
5391;SDS011;2719;53.624;9.786;2023-04-24T09:06:10;7.70;;;2.20;;
5391;SDS011;2719;53.624;9.786;2023-04-24T09:08:37;3.43;;;3.10;;
5391;SDS011;2719;53.624;9.786;2023-04-24T09:11:07;3.97;;;1.60;;
5391;SDS011;2719;53.624;9.786;2023-04-24T09:13:34;8.27;;;2.90;;
5391;SDS011;2719;53.624;9.786;2023-04-24T09:16:01;4.17;;;3.63;;
5391;SDS011;2719;53.624;9.786;2023-04-24T09:18:28;2.70;;;2.50;;
5391;SDS011;2719;53.624;9.786;2023-04-24T09:20:58;3.40;;;2.97;;
5391;SDS011;2719;53.624;9.786;2023-04-24T09:23:27;5.50;;;3.60;;
5391;SDS011;2719;53.624;9.786;2023-04-24T09:25:54;3.53;;;2.90;;
5391;SDS011;2719;53.624;9.786;2023-04-24T09:28:25;4.70;;;3.10;;
5391;SDS011;2719;53.624;9.786;2023-04-24T09:31:02;3.93;;;3.53;;
5391;SDS011;2719;53.624;9.786;2023-04-24T09:33:29;2.80;;;2.30;;
5391;SDS011;2719;53.624;9.786;2023-04-24T09:35:56;4.40;;;3.10;;
5391;SDS011;2719;53.624;9.786;2023-04-24T09:38:31;4.67;;;3.00;;
5391;SDS011;2719;53.624;9.786;2023-04-24T09:41:00;7.20;;;2.53;;
5391;SDS011;2719;53.624;9.786;2023-04-24T09:43:28;4.53;;;2.70;;
5391;SDS011;2719;53.624;9.786;2023-04-24T09:45:56;4.07;;;3.30;;
5391;SDS011;2719;53.624;9.786;2023-04-24T09:48:30;5.07;;;3.00;;
5391;SDS011;2719;53.624;9.786;2023-04-24T09:50:57;3.50;;;3.20;;
5391;SDS011;2719;53.624;9.786;2023-04-24T09:53:24;3.40;;;2.83;;
5391;SDS011;2719;53.624;9.786;2023-04-24T09:55:53;4.97;;;3.23;;
5391;SDS011;2719;53.624;9.786;2023-04-24T09:58:24;4.50;;;3.03;;
5391;SDS011;2719;53.624;9.786;2023-04-24T10:00:53;5.00;;;3.63;;
5391;SDS011;2719;53.624;9.786;2023-04-24T10:03:20;5.60;;;3.40;;
5391;SDS011;2719;53.624;9.786;2023-04-24T10:05:47;5.50;;;4.53;;
5391;SDS011;2719;53.624;9.786;2023-04-24T10:08:14;9.80;;;4.60;;
5391;SDS011;2719;53.624;9.786;2023-04-24T10:10:41;4.30;;;3.60;;
5391;SDS011;2719;53.624;9.786;2023-04-24T10:13:11;6.83;;;3.50;;
5391;SDS011;2719;53.624;9.786;2023-04-24T10:15:39;3.77;;;3.33;;
5391;SDS011;2719;53.624;9.786;2023-04-24T10:18:07;4.87;;;4.10;;
5391;SDS011;2719;53.624;9.786;2023-04-24T10:20:35;4.03;;;3.63;;
5391;SDS011;2719;53.624;9.786;2023-04-24T10:23:04;6.03;;;5.03;;
5391;SDS011;2719;53.624;9.786;2023-04-24T10:25:31;5.57;;;3.97;;
5391;SDS011;2719;53.624;9.786;2023-04-24T10:27:59;9.40;;;4.60;;
5391;SDS011;2719;53.624;9.786;2023-04-24T10:30:29;4.30;;;3.90;;
5391;SDS011;2719;53.624;9.786;2023-04-24T10:32:59;10.90;;;4.37;;
5391;SDS011;2719;53.624;9.786;2023-04-24T10:35:26;5.73;;;5.03;;
5391;SDS011;2719;53.624;9.786;2023-04-24T10:37:56;9.90;;;5.07;;
5391;SDS011;2719;53.624;9.786;2023-04-24T10:40:26;14.20;;;5.70;;
5391;SDS011;2719;53.624;9.786;2023-04-24T10:42:53;12.70;;;5.80;;
5391;SDS011;2719;53.624;9.786;2023-04-24T10:45:22;9.20;;;5.90;;
5391;SDS011;2719;53.624;9.786;2023-04-24T10:47:54;6.60;;;5.77;;
5391;SDS011;2719;53.624;9.786;2023-04-24T10:50:25;7.67;;;5.33;;
5391;SDS011;2719;53.624;9.786;2023-04-24T10:52:52;11.73;;;6.03;;
5391;SDS011;2719;53.624;9.786;2023-04-24T10:55:39;10.13;;;5.40;;
5391;SDS011;2719;53.624;9.786;2023-04-24T10:58:07;9.43;;;6.47;;
5391;SDS011;2719;53.624;9.786;2023-04-24T11:00:35;5.80;;;4.90;;
5391;SDS011;2719;53.624;9.786;2023-04-24T11:03:05;11.67;;;6.27;;
5391;SDS011;2719;53.624;9.786;2023-04-24T11:05:48;14.00;;;7.20;;
5391;SDS011;2719;53.624;9.786;2023-04-24T11:08:21;9.50;;;6.23;;
5391;SDS011;2719;53.624;9.786;2023-04-24T11:10:54;12.33;;;6.40;;
5391;SDS011;2719;53.624;9.786;2023-04-24T11:13:22;9.33;;;7.97;;
5391;SDS011;2719;53.624;9.786;2023-04-24T11:18:42;12.70;;;6.53;;
5391;SDS011;2719;53.624;9.786;2023-04-24T11:21:16;7.40;;;6.17;;
5391;SDS011;2719;53.624;9.786;2023-04-24T11:23:43;17.30;;;8.53;;
5391;SDS011;2719;53.624;9.786;2023-04-24T11:26:11;8.10;;;6.10;;
5391;SDS011;2719;53.624;9.786;2023-04-24T11:28:43;6.50;;;5.80;;
5391;SDS011;2719;53.624;9.786;2023-04-24T11:34:06;15.60;;;6.63;;
5391;SDS011;2719;53.624;9.786;2023-04-24T11:36:34;9.43;;;5.70;;
5391;SDS011;2719;53.624;9.786;2023-04-24T11:39:01;10.83;;;6.47;;
5391;SDS011;2719;53.624;9.786;2023-04-24T11:41:28;7.50;;;6.10;;
5391;SDS011;2719;53.624;9.786;2023-04-24T11:43:55;7.00;;;5.80;;
5391;SDS011;2719;53.624;9.786;2023-04-24T11:46:22;7.83;;;5.73;;
5391;SDS011;2719;53.624;9.786;2023-04-24T11:48:52;10.70;;;5.90;;
5391;SDS011;2719;53.624;9.786;2023-04-24T11:51:20;13.33;;;5.80;;
5391;SDS011;2719;53.624;9.786;2023-04-24T11:53:48;13.13;;;6.40;;
5391;SDS011;2719;53.624;9.786;2023-04-24T11:56:17;8.47;;;6.03;;
5391;SDS011;2719;53.624;9.786;2023-04-24T11:58:45;11.10;;;4.87;;
5391;SDS011;2719;53.624;9.786;2023-04-24T12:01:11;8.80;;;5.77;;
5391;SDS011;2719;53.624;9.786;2023-04-24T12:03:38;8.40;;;5.03;;
5391;SDS011;2719;53.624;9.786;2023-04-24T12:06:05;10.10;;;5.00;;
5391;SDS011;2719;53.624;9.786;2023-04-24T12:08:34;4.40;;;4.00;;
5391;SDS011;2719;53.624;9.786;2023-04-24T12:11:00;4.63;;;4.17;;
5391;SDS011;2719;53.624;9.786;2023-04-24T12:13:27;5.50;;;4.93;;
5391;SDS011;2719;53.624;9.786;2023-04-24T12:15:54;5.70;;;4.13;;
5391;SDS011;2719;53.624;9.786;2023-04-24T12:18:22;4.30;;;3.93;;
5391;SDS011;2719;53.624;9.786;2023-04-24T12:20:49;4.60;;;3.90;;
5391;SDS011;2719;53.624;9.786;2023-04-24T12:23:16;5.27;;;3.80;;
5391;SDS011;2719;53.624;9.786;2023-04-24T12:25:45;4.13;;;3.73;;
5391;SDS011;2719;53.624;9.786;2023-04-24T12:28:12;3.67;;;3.33;;
5391;SDS011;2719;53.624;9.786;2023-04-24T12:30:40;5.70;;;4.00;;
5391;SDS011;2719;53.624;9.786;2023-04-24T12:33:09;3.80;;;3.10;;
5391;SDS011;2719;53.624;9.786;2023-04-24T12:35:36;5.03;;;4.20;;
5391;SDS011;2719;53.624;9.786;2023-04-24T12:38:05;4.40;;;3.33;;
5391;SDS011;2719;53.624;9.786;2023-04-24T12:40:33;4.10;;;3.70;;
5391;SDS011;2719;53.624;9.786;2023-04-24T12:43:01;5.33;;;3.90;;
5391;SDS011;2719;53.624;9.786;2023-04-24T12:45:27;3.40;;;3.10;;
5391;SDS011;2719;53.624;9.786;2023-04-24T12:47:54;3.23;;;2.80;;
5391;SDS011;2719;53.624;9.786;2023-04-24T12:50:21;3.80;;;3.43;;
5391;SDS011;2719;53.624;9.786;2023-04-24T12:52:47;5.50;;;4.27;;
5391;SDS011;2719;53.624;9.786;2023-04-24T12:55:14;5.47;;;4.30;;
5391;SDS011;2719;53.624;9.786;2023-04-24T12:57:41;5.10;;;3.90;;
5391;SDS011;2719;53.624;9.786;2023-04-24T13:00:09;5.00;;;3.70;;
5391;SDS011;2719;53.624;9.786;2023-04-24T13:02:36;6.63;;;3.73;;
5391;SDS011;2719;53.624;9.786;2023-04-24T13:05:03;4.37;;;3.97;;
5391;SDS011;2719;53.624;9.786;2023-04-24T13:07:30;5.20;;;3.10;;
5391;SDS011;2719;53.624;9.786;2023-04-24T13:09:56;5.70;;;5.07;;
5391;SDS011;2719;53.624;9.786;2023-04-24T13:12:23;4.97;;;4.40;;
5391;SDS011;2719;53.624;9.786;2023-04-24T13:14:50;5.77;;;3.93;;
5391;SDS011;2719;53.624;9.786;2023-04-24T13:17:18;4.27;;;3.87;;
5391;SDS011;2719;53.624;9.786;2023-04-24T13:19:45;5.67;;;4.83;;
5391;SDS011;2719;53.624;9.786;2023-04-24T13:22:12;5.03;;;4.57;;
5391;SDS011;2719;53.624;9.786;2023-04-24T13:24:39;8.30;;;4.27;;
5391;SDS011;2719;53.624;9.786;2023-04-24T13:27:06;5.50;;;4.40;;
5391;SDS011;2719;53.624;9.786;2023-04-24T13:29:33;4.43;;;4.03;;
5391;SDS011;2719;53.624;9.786;2023-04-24T13:32:00;8.40;;;4.57;;
5391;SDS011;2719;53.624;9.786;2023-04-24T13:34:28;7.37;;;5.50;;
5391;SDS011;2719;53.624;9.786;2023-04-24T13:36:56;16.50;;;4.30;;
5391;SDS011;2719;53.624;9.786;2023-04-24T13:39:24;6.43;;;4.30;;
5391;SDS011;2719;53.624;9.786;2023-04-24T13:41:51;5.90;;;5.10;;
5391;SDS011;2719;53.624;9.786;2023-04-24T13:44:18;7.00;;;4.43;;
5391;SDS011;2719;53.624;9.786;2023-04-24T13:46:47;6.13;;;4.40;;
5391;SDS011;2719;53.624;9.786;2023-04-24T13:49:15;9.37;;;5.93;;
5391;SDS011;2719;53.624;9.786;2023-04-24T13:51:43;5.20;;;4.70;;
5391;SDS011;2719;53.624;9.786;2023-04-24T13:54:10;6.23;;;5.20;;
5391;SDS011;2719;53.624;9.786;2023-04-24T13:56:37;7.57;;;5.77;;
5391;SDS011;2719;53.624;9.786;2023-04-24T13:59:04;12.30;;;5.70;;
5391;SDS011;2719;53.624;9.786;2023-04-24T14:01:31;6.30;;;4.10;;
5391;SDS011;2719;53.624;9.786;2023-04-24T14:03:58;9.03;;;4.57;;
5391;SDS011;2719;53.624;9.786;2023-04-24T14:06:24;6.73;;;4.80;;
5391;SDS011;2719;53.624;9.786;2023-04-24T14:08:53;5.80;;;4.70;;
5391;SDS011;2719;53.624;9.786;2023-04-24T14:11:19;7.07;;;4.90;;
5391;SDS011;2719;53.624;9.786;2023-04-24T14:13:46;5.87;;;4.43;;
5391;SDS011;2719;53.624;9.786;2023-04-24T14:16:13;5.73;;;4.00;;
5391;SDS011;2719;53.624;9.786;2023-04-24T14:18:40;5.53;;;4.67;;
5391;SDS011;2719;53.624;9.786;2023-04-24T14:21:07;4.63;;;4.23;;
5391;SDS011;2719;53.624;9.786;2023-04-24T14:23:33;6.20;;;4.73;;
5391;SDS011;2719;53.624;9.786;2023-04-24T14:26:02;6.43;;;4.70;;
5391;SDS011;2719;53.624;9.786;2023-04-24T14:28:28;5.07;;;4.57;;
5391;SDS011;2719;53.624;9.786;2023-04-24T14:30:55;5.60;;;4.50;;
5391;SDS011;2719;53.624;9.786;2023-04-24T14:33:22;6.13;;;4.90;;
5391;SDS011;2719;53.624;9.786;2023-04-24T14:35:48;5.60;;;4.87;;
5391;SDS011;2719;53.624;9.786;2023-04-24T14:38:15;4.53;;;4.13;;
5391;SDS011;2719;53.624;9.786;2023-04-24T14:40:41;6.23;;;4.67;;
5391;SDS011;2719;53.624;9.786;2023-04-24T14:43:09;5.53;;;4.40;;
5391;SDS011;2719;53.624;9.786;2023-04-24T14:45:36;4.37;;;3.03;;
5391;SDS011;2719;53.624;9.786;2023-04-24T14:48:05;5.97;;;4.57;;
5391;SDS011;2719;53.624;9.786;2023-04-24T14:50:33;4.60;;;4.00;;
5391;SDS011;2719;53.624;9.786;2023-04-24T14:52:59;4.53;;;4.10;;
5391;SDS011;2719;53.624;9.786;2023-04-24T14:55:27;4.90;;;3.93;;
5391;SDS011;2719;53.624;9.786;2023-04-24T14:57:54;6.40;;;4.20;;
5391;SDS011;2719;53.624;9.786;2023-04-24T15:00:22;3.50;;;2.57;;
5391;SDS011;2719;53.624;9.786;2023-04-24T15:02:49;3.73;;;2.53;;
5391;SDS011;2719;53.624;9.786;2023-04-24T15:05:16;2.10;;;1.90;;
5391;SDS011;2719;53.624;9.786;2023-04-24T15:07:42;2.47;;;1.87;;
5391;SDS011;2719;53.624;9.786;2023-04-24T15:10:10;6.00;;;2.43;;
5391;SDS011;2719;53.624;9.786;2023-04-24T15:12:37;1.87;;;1.63;;
5391;SDS011;2719;53.624;9.786;2023-04-24T15:15:04;2.20;;;1.47;;
5391;SDS011;2719;53.624;9.786;2023-04-24T15:17:33;1.33;;;0.97;;
5391;SDS011;2719;53.624;9.786;2023-04-24T15:20:00;1.30;;;1.20;;
5391;SDS011;2719;53.624;9.786;2023-04-24T15:22:28;3.10;;;1.20;;